sensor_id;sensor_type;location;lat;lon;timestamp;temperature;humidity
32877;DHT22;19226;51.600;8.034;2023-03-14T00:01:46;12.00;99.90
32877;DHT22;19226;51.600;8.034;2023-03-14T00:04:30;12.00;99.90
32877;DHT22;19226;51.600;8.034;2023-03-14T00:07:15;12.00;99.90
32877;DHT22;19226;51.600;8.034;2023-03-14T00:09:59;12.00;99.90
32877;DHT22;19226;51.600;8.034;2023-03-14T00:12:44;12.00;99.90
32877;DHT22;19226;51.600;8.034;2023-03-14T00:15:29;12.00;99.90
32877;DHT22;19226;51.600;8.034;2023-03-14T00:18:13;11.90;99.90
32877;DHT22;19226;51.600;8.034;2023-03-14T00:21:00;11.90;99.90
32877;DHT22;19226;51.600;8.034;2023-03-14T00:23:44;11.90;99.90
32877;DHT22;19226;51.600;8.034;2023-03-14T00:26:29;11.90;99.90
32877;DHT22;19226;51.600;8.034;2023-03-14T00:29:14;11.90;99.90
32877;DHT22;19226;51.600;8.034;2023-03-14T00:31:58;11.90;99.90
32877;DHT22;19226;51.600;8.034;2023-03-14T00:34:43;12.00;99.90
32877;DHT22;19226;51.600;8.034;2023-03-14T00:37:27;12.00;99.90
32877;DHT22;19226;51.600;8.034;2023-03-14T00:40:12;12.00;99.90
32877;DHT22;19226;51.600;8.034;2023-03-14T00:42:56;12.00;99.90
32877;DHT22;19226;51.600;8.034;2023-03-14T00:45:41;12.00;99.90
32877;DHT22;19226;51.600;8.034;2023-03-14T00:48:26;12.00;99.90
32877;DHT22;19226;51.600;8.034;2023-03-14T00:51:11;12.00;99.90
32877;DHT22;19226;51.600;8.034;2023-03-14T00:54:01;12.00;99.90
32877;DHT22;19226;51.600;8.034;2023-03-14T00:56:45;12.00;99.90
32877;DHT22;19226;51.600;8.034;2023-03-14T00:59:30;12.00;99.90
32877;DHT22;19226;51.600;8.034;2023-03-14T01:02:15;12.00;99.90
32877;DHT22;19226;51.600;8.034;2023-03-14T01:04:59;12.00;99.90
32877;DHT22;19226;51.600;8.034;2023-03-14T01:07:44;12.00;99.90
32877;DHT22;19226;51.600;8.034;2023-03-14T01:10:29;12.00;99.90
32877;DHT22;19226;51.600;8.034;2023-03-14T01:13:13;12.00;99.90
32877;DHT22;19226;51.600;8.034;2023-03-14T01:16:06;12.00;99.90
32877;DHT22;19226;51.600;8.034;2023-03-14T01:18:56;12.00;99.90
32877;DHT22;19226;51.600;8.034;2023-03-14T01:21:40;12.10;99.90
32877;DHT22;19226;51.600;8.034;2023-03-14T01:24:25;12.10;99.90
32877;DHT22;19226;51.600;8.034;2023-03-14T01:27:09;12.10;99.90
32877;DHT22;19226;51.600;8.034;2023-03-14T01:29:54;12.10;99.90
32877;DHT22;19226;51.600;8.034;2023-03-14T01:32:39;12.20;99.90
32877;DHT22;19226;51.600;8.034;2023-03-14T01:35:24;12.20;99.90
32877;DHT22;19226;51.600;8.034;2023-03-14T01:38:09;12.20;99.90
32877;DHT22;19226;51.600;8.034;2023-03-14T01:40:54;12.20;99.90
32877;DHT22;19226;51.600;8.034;2023-03-14T01:43:38;12.20;99.90
32877;DHT22;19226;51.600;8.034;2023-03-14T01:46:37;12.20;99.90
32877;DHT22;19226;51.600;8.034;2023-03-14T01:49:30;12.20;99.90
32877;DHT22;19226;51.600;8.034;2023-03-14T01:52:39;12.20;99.90
32877;DHT22;19226;51.600;8.034;2023-03-14T01:55:26;12.20;99.90
32877;DHT22;19226;51.600;8.034;2023-03-14T01:58:11;12.10;99.90
32877;DHT22;19226;51.600;8.034;2023-03-14T02:00:57;12.10;99.90
32877;DHT22;19226;51.600;8.034;2023-03-14T02:03:55;12.10;99.90
32877;DHT22;19226;51.600;8.034;2023-03-14T02:06:44;11.90;99.90
32877;DHT22;19226;51.600;8.034;2023-03-14T02:09:32;11.70;99.90
32877;DHT22;19226;51.600;8.034;2023-03-14T02:12:18;11.50;99.90
32877;DHT22;19226;51.600;8.034;2023-03-14T02:15:22;11.30;99.90
32877;DHT22;19226;51.600;8.034;2023-03-14T02:18:16;11.00;99.90
32877;DHT22;19226;51.600;8.034;2023-03-14T02:21:43;10.80;99.90
32877;DHT22;19226;51.600;8.034;2023-03-14T02:24:39;10.70;99.90
32877;DHT22;19226;51.600;8.034;2023-03-14T02:27:28;10.70;99.90
32877;DHT22;19226;51.600;8.034;2023-03-14T02:30:16;10.50;99.90
32877;DHT22;19226;51.600;8.034;2023-03-14T02:33:06;10.50;99.90
32877;DHT22;19226;51.600;8.034;2023-03-14T02:35:59;10.50;99.90
32877;DHT22;19226;51.600;8.034;2023-03-14T02:38:47;10.40;99.90
32877;DHT22;19226;51.600;8.034;2023-03-14T02:41:34;10.40;99.90
32877;DHT22;19226;51.600;8.034;2023-03-14T02:44:22;10.40;99.90
32877;DHT22;19226;51.600;8.034;2023-03-14T02:47:07;10.30;99.90
32877;DHT22;19226;51.600;8.034;2023-03-14T02:49:56;10.30;99.90
32877;DHT22;19226;51.600;8.034;2023-03-14T02:52:43;10.30;99.90
32877;DHT22;19226;51.600;8.034;2023-03-14T02:55:28;10.30;99.90
32877;DHT22;19226;51.600;8.034;2023-03-14T02:58:17;10.30;99.90
32877;DHT22;19226;51.600;8.034;2023-03-14T03:01:05;10.20;99.90
32877;DHT22;19226;51.600;8.034;2023-03-14T03:03:50;10.20;99.90
32877;DHT22;19226;51.600;8.034;2023-03-14T03:06:37;10.20;99.90
32877;DHT22;19226;51.600;8.034;2023-03-14T03:09:21;10.20;99.90
32877;DHT22;19226;51.600;8.034;2023-03-14T03:12:06;10.20;99.90
32877;DHT22;19226;51.600;8.034;2023-03-14T03:14:51;10.10;99.90
32877;DHT22;19226;51.600;8.034;2023-03-14T03:17:36;10.10;99.90
32877;DHT22;19226;51.600;8.034;2023-03-14T03:20:20;10.10;99.90
32877;DHT22;19226;51.600;8.034;2023-03-14T03:23:05;10.10;99.90
32877;DHT22;19226;51.600;8.034;2023-03-14T03:25:50;10.10;99.90
32877;DHT22;19226;51.600;8.034;2023-03-14T03:28:35;10.10;99.90
32877;DHT22;19226;51.600;8.034;2023-03-14T03:31:20;10.10;99.90
32877;DHT22;19226;51.600;8.034;2023-03-14T03:34:05;10.00;99.90
32877;DHT22;19226;51.600;8.034;2023-03-14T03:36:50;10.10;99.90
32877;DHT22;19226;51.600;8.034;2023-03-14T03:39:34;10.10;99.90
32877;DHT22;19226;51.600;8.034;2023-03-14T03:42:19;10.10;99.90
32877;DHT22;19226;51.600;8.034;2023-03-14T03:45:05;10.00;99.90
32877;DHT22;19226;51.600;8.034;2023-03-14T03:47:53;10.00;99.90
32877;DHT22;19226;51.600;8.034;2023-03-14T03:50:43;10.00;99.90
32877;DHT22;19226;51.600;8.034;2023-03-14T03:53:27;10.00;99.90
32877;DHT22;19226;51.600;8.034;2023-03-14T03:56:12;10.00;99.90
32877;DHT22;19226;51.600;8.034;2023-03-14T03:58:58;10.00;99.90
32877;DHT22;19226;51.600;8.034;2023-03-14T04:01:43;10.10;99.90
32877;DHT22;19226;51.600;8.034;2023-03-14T04:04:27;10.10;99.90
32877;DHT22;19226;51.600;8.034;2023-03-14T04:07:12;10.10;99.90
32877;DHT22;19226;51.600;8.034;2023-03-14T04:09:58;10.10;99.90
32877;DHT22;19226;51.600;8.034;2023-03-14T04:12:51;10.20;99.90
32877;DHT22;19226;51.600;8.034;2023-03-14T04:15:41;10.20;99.90
32877;DHT22;19226;51.600;8.034;2023-03-14T04:18:35;10.20;99.90
32877;DHT22;19226;51.600;8.034;2023-03-14T04:21:20;10.20;99.90
32877;DHT22;19226;51.600;8.034;2023-03-14T04:24:08;10.20;99.90
32877;DHT22;19226;51.600;8.034;2023-03-14T04:26:53;10.20;99.90
32877;DHT22;19226;51.600;8.034;2023-03-14T04:29:38;10.20;99.90
32877;DHT22;19226;51.600;8.034;2023-03-14T04:32:23;10.10;99.90
32877;DHT22;19226;51.600;8.034;2023-03-14T04:35:08;10.20;99.90
32877;DHT22;19226;51.600;8.034;2023-03-14T04:37:54;10.20;99.90
32877;DHT22;19226;51.600;8.034;2023-03-14T04:40:41;10.20;99.90
32877;DHT22;19226;51.600;8.034;2023-03-14T04:43:26;10.10;99.90
32877;DHT22;19226;51.600;8.034;2023-03-14T04:46:17;10.20;99.90
32877;DHT22;19226;51.600;8.034;2023-03-14T04:49:02;10.10;99.90
32877;DHT22;19226;51.600;8.034;2023-03-14T04:51:47;10.10;99.90
32877;DHT22;19226;51.600;8.034;2023-03-14T04:54:31;10.10;99.90
32877;DHT22;19226;51.600;8.034;2023-03-14T04:57:18;10.00;99.90
32877;DHT22;19226;51.600;8.034;2023-03-14T05:00:05;10.00;99.90
32877;DHT22;19226;51.600;8.034;2023-03-14T05:03:29;10.00;99.90
32877;DHT22;19226;51.600;8.034;2023-03-14T05:06:36;9.90;99.90
32877;DHT22;19226;51.600;8.034;2023-03-14T05:09:31;9.80;99.90
32877;DHT22;19226;51.600;8.034;2023-03-14T05:12:38;9.80;99.90
32877;DHT22;19226;51.600;8.034;2023-03-14T05:15:37;9.80;99.90
32877;DHT22;19226;51.600;8.034;2023-03-14T05:18:40;9.80;99.90
32877;DHT22;19226;51.600;8.034;2023-03-14T05:21:30;9.70;99.90
32877;DHT22;19226;51.600;8.034;2023-03-14T05:24:50;9.70;99.90
32877;DHT22;19226;51.600;8.034;2023-03-14T05:27:54;9.80;99.90
32877;DHT22;19226;51.600;8.034;2023-03-14T05:31:06;9.70;99.90
32877;DHT22;19226;51.600;8.034;2023-03-14T05:34:16;9.70;99.90
32877;DHT22;19226;51.600;8.034;2023-03-14T05:37:18;9.70;99.90
32877;DHT22;19226;51.600;8.034;2023-03-14T05:40:22;9.80;99.90
32877;DHT22;19226;51.600;8.034;2023-03-14T05:43:20;9.80;99.90
32877;DHT22;19226;51.600;8.034;2023-03-14T05:46:14;9.80;99.90
32877;DHT22;19226;51.600;8.034;2023-03-14T05:49:21;9.80;99.90
32877;DHT22;19226;51.600;8.034;2023-03-14T05:52:31;9.90;99.90
32877;DHT22;19226;51.600;8.034;2023-03-14T05:55:26;9.90;99.90
32877;DHT22;19226;51.600;8.034;2023-03-14T05:58:33;9.80;99.90
32877;DHT22;19226;51.600;8.034;2023-03-14T06:01:43;9.80;99.90
32877;DHT22;19226;51.600;8.034;2023-03-14T06:04:33;9.90;99.90
32877;DHT22;19226;51.600;8.034;2023-03-14T06:07:18;9.80;99.90
32877;DHT22;19226;51.600;8.034;2023-03-14T06:10:03;9.80;99.90
32877;DHT22;19226;51.600;8.034;2023-03-14T06:12:47;9.80;99.90
32877;DHT22;19226;51.600;8.034;2023-03-14T06:15:33;9.80;99.90
32877;DHT22;19226;51.600;8.034;2023-03-14T06:18:17;9.70;99.90
32877;DHT22;19226;51.600;8.034;2023-03-14T06:21:02;9.70;99.90
32877;DHT22;19226;51.600;8.034;2023-03-14T06:23:47;9.70;99.90
32877;DHT22;19226;51.600;8.034;2023-03-14T06:26:32;9.70;99.90
32877;DHT22;19226;51.600;8.034;2023-03-14T06:29:16;9.70;99.90
32877;DHT22;19226;51.600;8.034;2023-03-14T06:32:01;9.70;99.90
32877;DHT22;19226;51.600;8.034;2023-03-14T06:34:46;9.70;99.90
32877;DHT22;19226;51.600;8.034;2023-03-14T06:37:30;9.70;99.90
32877;DHT22;19226;51.600;8.034;2023-03-14T06:40:15;9.70;99.90
32877;DHT22;19226;51.600;8.034;2023-03-14T06:43:13;9.60;99.90
32877;DHT22;19226;51.600;8.034;2023-03-14T06:46:00;9.60;99.90
32877;DHT22;19226;51.600;8.034;2023-03-14T06:48:45;9.70;99.90
32877;DHT22;19226;51.600;8.034;2023-03-14T06:51:31;9.70;99.90
32877;DHT22;19226;51.600;8.034;2023-03-14T06:54:16;9.70;99.90
32877;DHT22;19226;51.600;8.034;2023-03-14T06:57:00;9.70;99.90
32877;DHT22;19226;51.600;8.034;2023-03-14T06:59:45;9.80;99.90
32877;DHT22;19226;51.600;8.034;2023-03-14T07:02:30;9.80;99.90
32877;DHT22;19226;51.600;8.034;2023-03-14T07:05:17;9.90;99.90
32877;DHT22;19226;51.600;8.034;2023-03-14T07:08:02;10.00;99.90
32877;DHT22;19226;51.600;8.034;2023-03-14T07:10:46;10.00;99.90
32877;DHT22;19226;51.600;8.034;2023-03-14T07:13:31;10.10;99.90
32877;DHT22;19226;51.600;8.034;2023-03-14T07:16:21;10.20;99.90
32877;DHT22;19226;51.600;8.034;2023-03-14T07:19:05;10.20;99.90
32877;DHT22;19226;51.600;8.034;2023-03-14T07:21:50;10.20;99.90
32877;DHT22;19226;51.600;8.034;2023-03-14T07:24:39;10.30;99.90
32877;DHT22;19226;51.600;8.034;2023-03-14T07:27:23;10.30;99.90
32877;DHT22;19226;51.600;8.034;2023-03-14T07:30:08;10.40;99.90
32877;DHT22;19226;51.600;8.034;2023-03-14T07:32:52;10.40;99.90
32877;DHT22;19226;51.600;8.034;2023-03-14T07:35:39;10.50;99.90
32877;DHT22;19226;51.600;8.034;2023-03-14T07:38:24;10.50;99.90
32877;DHT22;19226;51.600;8.034;2023-03-14T07:41:25;10.50;99.90
32877;DHT22;19226;51.600;8.034;2023-03-14T07:44:28;10.60;99.90
32877;DHT22;19226;51.600;8.034;2023-03-14T07:47:13;10.60;99.90
32877;DHT22;19226;51.600;8.034;2023-03-14T07:49:58;10.60;99.90
32877;DHT22;19226;51.600;8.034;2023-03-14T07:52:42;10.60;99.90
32877;DHT22;19226;51.600;8.034;2023-03-14T07:55:27;10.70;99.90
32877;DHT22;19226;51.600;8.034;2023-03-14T07:58:11;10.70;99.90
32877;DHT22;19226;51.600;8.034;2023-03-14T08:00:58;10.70;99.90
32877;DHT22;19226;51.600;8.034;2023-03-14T08:03:43;10.80;99.90
32877;DHT22;19226;51.600;8.034;2023-03-14T08:06:27;10.80;99.90
32877;DHT22;19226;51.600;8.034;2023-03-14T08:09:12;10.80;99.90
32877;DHT22;19226;51.600;8.034;2023-03-14T08:11:56;10.80;99.90
32877;DHT22;19226;51.600;8.034;2023-03-14T08:14:41;10.80;99.90
32877;DHT22;19226;51.600;8.034;2023-03-14T08:17:26;10.90;99.90
32877;DHT22;19226;51.600;8.034;2023-03-14T08:20:11;10.90;99.90
32877;DHT22;19226;51.600;8.034;2023-03-14T08:22:58;11.00;99.90
32877;DHT22;19226;51.600;8.034;2023-03-14T08:25:42;11.00;99.90
32877;DHT22;19226;51.600;8.034;2023-03-14T08:28:27;11.10;99.90
32877;DHT22;19226;51.600;8.034;2023-03-14T08:31:17;11.10;99.90
32877;DHT22;19226;51.600;8.034;2023-03-14T08:34:02;11.10;99.90
32877;DHT22;19226;51.600;8.034;2023-03-14T08:36:46;11.20;99.90
32877;DHT22;19226;51.600;8.034;2023-03-14T08:39:31;11.20;99.90
32877;DHT22;19226;51.600;8.034;2023-03-14T08:42:16;11.20;99.90
32877;DHT22;19226;51.600;8.034;2023-03-14T08:45:00;11.20;99.90
32877;DHT22;19226;51.600;8.034;2023-03-14T08:47:45;11.30;99.90
32877;DHT22;19226;51.600;8.034;2023-03-14T08:50:30;11.30;99.90
32877;DHT22;19226;51.600;8.034;2023-03-14T08:53:15;11.40;99.90
32877;DHT22;19226;51.600;8.034;2023-03-14T08:55:59;11.40;99.90
32877;DHT22;19226;51.600;8.034;2023-03-14T08:58:44;11.50;99.90
32877;DHT22;19226;51.600;8.034;2023-03-14T09:01:28;11.50;99.90
32877;DHT22;19226;51.600;8.034;2023-03-14T09:04:13;11.60;99.90
32877;DHT22;19226;51.600;8.034;2023-03-14T09:06:59;11.70;99.90
32877;DHT22;19226;51.600;8.034;2023-03-14T09:09:43;11.80;99.90
32877;DHT22;19226;51.600;8.034;2023-03-14T09:12:28;11.80;99.90
32877;DHT22;19226;51.600;8.034;2023-03-14T09:15:12;11.80;99.90
32877;DHT22;19226;51.600;8.034;2023-03-14T09:17:57;11.70;99.90
32877;DHT22;19226;51.600;8.034;2023-03-14T09:20:42;11.80;99.90
32877;DHT22;19226;51.600;8.034;2023-03-14T09:23:27;11.90;99.90
32877;DHT22;19226;51.600;8.034;2023-03-14T09:26:11;11.90;99.90
32877;DHT22;19226;51.600;8.034;2023-03-14T09:28:56;11.90;99.90
32877;DHT22;19226;51.600;8.034;2023-03-14T09:31:40;11.80;99.90
32877;DHT22;19226;51.600;8.034;2023-03-14T09:34:26;11.80;99.90
32877;DHT22;19226;51.600;8.034;2023-03-14T09:37:10;11.80;99.90
32877;DHT22;19226;51.600;8.034;2023-03-14T09:39:55;11.80;99.90
32877;DHT22;19226;51.600;8.034;2023-03-14T09:42:39;11.80;99.90
32877;DHT22;19226;51.600;8.034;2023-03-14T09:45:28;11.80;99.90
32877;DHT22;19226;51.600;8.034;2023-03-14T09:48:19;11.90;99.90
32877;DHT22;19226;51.600;8.034;2023-03-14T09:51:10;11.90;99.90
32877;DHT22;19226;51.600;8.034;2023-03-14T09:53:55;11.90;99.90
32877;DHT22;19226;51.600;8.034;2023-03-14T09:56:40;11.80;99.90
32877;DHT22;19226;51.600;8.034;2023-03-14T09:59:26;11.80;99.90
32877;DHT22;19226;51.600;8.034;2023-03-14T10:02:28;11.70;99.90
32877;DHT22;19226;51.600;8.034;2023-03-14T10:05:18;11.70;99.90
32877;DHT22;19226;51.600;8.034;2023-03-14T10:08:03;11.70;99.90
32877;DHT22;19226;51.600;8.034;2023-03-14T10:10:49;11.70;99.90
32877;DHT22;19226;51.600;8.034;2023-03-14T10:13:33;11.80;99.90
32877;DHT22;19226;51.600;8.034;2023-03-14T10:16:28;11.70;99.90
32877;DHT22;19226;51.600;8.034;2023-03-14T10:19:15;11.60;99.90
32877;DHT22;19226;51.600;8.034;2023-03-14T10:22:00;11.50;99.90
32877;DHT22;19226;51.600;8.034;2023-03-14T10:24:51;11.40;99.90
32877;DHT22;19226;51.600;8.034;2023-03-14T10:27:36;11.30;99.90
32877;DHT22;19226;51.600;8.034;2023-03-14T10:30:39;11.20;99.90
32877;DHT22;19226;51.600;8.034;2023-03-14T10:33:33;11.10;99.90
32877;DHT22;19226;51.600;8.034;2023-03-14T10:36:21;10.90;99.90
32877;DHT22;19226;51.600;8.034;2023-03-14T10:39:27;10.90;99.90
32877;DHT22;19226;51.600;8.034;2023-03-14T10:42:15;10.80;99.90
32877;DHT22;19226;51.600;8.034;2023-03-14T10:45:05;10.70;99.90
32877;DHT22;19226;51.600;8.034;2023-03-14T10:47:51;10.60;99.90
32877;DHT22;19226;51.600;8.034;2023-03-14T10:50:36;10.50;99.90
32877;DHT22;19226;51.600;8.034;2023-03-14T10:53:21;10.40;99.90
32877;DHT22;19226;51.600;8.034;2023-03-14T10:56:06;10.20;99.90
32877;DHT22;19226;51.600;8.034;2023-03-14T10:58:56;10.10;99.90
32877;DHT22;19226;51.600;8.034;2023-03-14T11:01:48;10.00;99.90
32877;DHT22;19226;51.600;8.034;2023-03-14T11:04:56;10.00;99.90
32877;DHT22;19226;51.600;8.034;2023-03-14T11:07:49;9.90;99.90
32877;DHT22;19226;51.600;8.034;2023-03-14T11:10:43;9.80;99.90
32877;DHT22;19226;51.600;8.034;2023-03-14T11:17:23;9.60;99.90
32877;DHT22;19226;51.600;8.034;2023-03-14T11:23:18;9.50;99.90
32877;DHT22;19226;51.600;8.034;2023-03-14T11:26:32;9.40;99.90
32877;DHT22;19226;51.600;8.034;2023-03-14T11:29:38;9.20;99.90
32877;DHT22;19226;51.600;8.034;2023-03-14T11:35:30;8.90;99.90
32877;DHT22;19226;51.600;8.034;2023-03-14T11:38:37;8.80;99.90
32877;DHT22;19226;51.600;8.034;2023-03-14T11:41:34;8.60;99.90
32877;DHT22;19226;51.600;8.034;2023-03-14T11:44:27;8.60;99.90
32877;DHT22;19226;51.600;8.034;2023-03-14T11:47:20;8.40;99.90
32877;DHT22;19226;51.600;8.034;2023-03-14T11:50:17;8.30;99.90
32877;DHT22;19226;51.600;8.034;2023-03-14T11:56:16;8.30;99.90
32877;DHT22;19226;51.600;8.034;2023-03-14T11:59:14;8.30;99.90
32877;DHT22;19226;51.600;8.034;2023-03-14T12:02:16;8.20;99.90
32877;DHT22;19226;51.600;8.034;2023-03-14T12:08:17;8.10;99.90
32877;DHT22;19226;51.600;8.034;2023-03-14T12:11:21;8.00;99.90
32877;DHT22;19226;51.600;8.034;2023-03-14T12:14:28;8.00;99.90
32877;DHT22;19226;51.600;8.034;2023-03-14T12:17:35;7.80;99.90
32877;DHT22;19226;51.600;8.034;2023-03-14T12:20:25;7.80;99.90
32877;DHT22;19226;51.600;8.034;2023-03-14T12:23:11;7.90;99.90
32877;DHT22;19226;51.600;8.034;2023-03-14T12:31:49;7.90;99.90
32877;DHT22;19226;51.600;8.034;2023-03-14T12:34:49;7.90;99.90
32877;DHT22;19226;51.600;8.034;2023-03-14T12:37:42;7.90;99.90
32877;DHT22;19226;51.600;8.034;2023-03-14T12:40:33;7.80;99.90
32877;DHT22;19226;51.600;8.034;2023-03-14T12:43:30;7.80;99.90
32877;DHT22;19226;51.600;8.034;2023-03-14T12:46:21;7.80;99.90
32877;DHT22;19226;51.600;8.034;2023-03-14T12:49:08;7.70;99.90
32877;DHT22;19226;51.600;8.034;2023-03-14T12:51:59;7.60;99.90
32877;DHT22;19226;51.600;8.034;2023-03-14T12:58:02;7.60;99.90
32877;DHT22;19226;51.600;8.034;2023-03-14T13:00:55;7.60;99.90
32877;DHT22;19226;51.600;8.034;2023-03-14T13:06:57;7.70;99.90
32877;DHT22;19226;51.600;8.034;2023-03-14T13:13:01;7.50;99.90
32877;DHT22;19226;51.600;8.034;2023-03-14T13:15:48;7.50;99.90
32877;DHT22;19226;51.600;8.034;2023-03-14T13:18:38;7.60;99.90
32877;DHT22;19226;51.600;8.034;2023-03-14T13:21:25;7.70;99.90
32877;DHT22;19226;51.600;8.034;2023-03-14T13:24:25;7.70;99.90
32877;DHT22;19226;51.600;8.034;2023-03-14T13:27:18;7.70;99.90
32877;DHT22;19226;51.600;8.034;2023-03-14T13:30:23;7.70;99.90
32877;DHT22;19226;51.600;8.034;2023-03-14T13:33:20;7.60;99.90
32877;DHT22;19226;51.600;8.034;2023-03-14T13:36:09;7.60;99.90
32877;DHT22;19226;51.600;8.034;2023-03-14T13:39:01;7.60;99.90
32877;DHT22;19226;51.600;8.034;2023-03-14T13:41:47;7.50;99.90
32877;DHT22;19226;51.600;8.034;2023-03-14T13:44:38;7.40;99.90
32877;DHT22;19226;51.600;8.034;2023-03-14T13:47:24;7.50;99.90
32877;DHT22;19226;51.600;8.034;2023-03-14T13:50:17;7.50;99.90
32877;DHT22;19226;51.600;8.034;2023-03-14T13:53:02;7.50;99.90
32877;DHT22;19226;51.600;8.034;2023-03-14T13:55:47;7.60;99.90
32877;DHT22;19226;51.600;8.034;2023-03-14T13:58:31;7.50;99.90
32877;DHT22;19226;51.600;8.034;2023-03-14T14:01:37;7.50;99.90
32877;DHT22;19226;51.600;8.034;2023-03-14T14:04:23;7.50;99.90
32877;DHT22;19226;51.600;8.034;2023-03-14T14:07:18;7.50;99.90
32877;DHT22;19226;51.600;8.034;2023-03-14T14:10:03;7.60;99.90
32877;DHT22;19226;51.600;8.034;2023-03-14T14:12:56;7.60;99.90
32877;DHT22;19226;51.600;8.034;2023-03-14T14:15:44;7.60;99.90
32877;DHT22;19226;51.600;8.034;2023-03-14T14:18:31;7.70;99.90
32877;DHT22;19226;51.600;8.034;2023-03-14T14:21:17;7.80;99.90
32877;DHT22;19226;51.600;8.034;2023-03-14T14:24:02;7.90;99.90
32877;DHT22;19226;51.600;8.034;2023-03-14T14:26:50;8.00;99.90
32877;DHT22;19226;51.600;8.034;2023-03-14T14:29:35;8.00;99.90
32877;DHT22;19226;51.600;8.034;2023-03-14T14:32:20;8.10;99.90
32877;DHT22;19226;51.600;8.034;2023-03-14T14:35:05;8.20;99.90
32877;DHT22;19226;51.600;8.034;2023-03-14T14:37:50;8.20;99.90
32877;DHT22;19226;51.600;8.034;2023-03-14T14:40:46;8.30;99.90
32877;DHT22;19226;51.600;8.034;2023-03-14T14:43:36;8.20;99.90
32877;DHT22;19226;51.600;8.034;2023-03-14T14:46:26;8.10;99.90
32877;DHT22;19226;51.600;8.034;2023-03-14T14:49:19;8.20;99.90
32877;DHT22;19226;51.600;8.034;2023-03-14T14:52:16;8.10;99.90
32877;DHT22;19226;51.600;8.034;2023-03-14T14:55:02;8.20;99.90
32877;DHT22;19226;51.600;8.034;2023-03-14T14:57:52;8.20;99.90
32877;DHT22;19226;51.600;8.034;2023-03-14T15:00:39;8.30;99.90
32877;DHT22;19226;51.600;8.034;2023-03-14T15:03:30;8.40;99.90
32877;DHT22;19226;51.600;8.034;2023-03-14T15:06:16;8.60;99.90
32877;DHT22;19226;51.600;8.034;2023-03-14T15:09:01;8.70;99.90
32877;DHT22;19226;51.600;8.034;2023-03-14T15:11:47;8.70;99.90
32877;DHT22;19226;51.600;8.034;2023-03-14T15:14:31;8.80;99.90
32877;DHT22;19226;51.600;8.034;2023-03-14T15:17:16;8.80;99.90
32877;DHT22;19226;51.600;8.034;2023-03-14T15:20:00;8.80;99.90
32877;DHT22;19226;51.600;8.034;2023-03-14T15:22:46;8.80;99.90
32877;DHT22;19226;51.600;8.034;2023-03-14T15:25:30;8.80;99.90
32877;DHT22;19226;51.600;8.034;2023-03-14T15:28:25;8.90;99.90
32877;DHT22;19226;51.600;8.034;2023-03-14T15:31:12;9.10;99.90
32877;DHT22;19226;51.600;8.034;2023-03-14T15:33:56;9.40;99.90
32877;DHT22;19226;51.600;8.034;2023-03-14T15:36:41;9.60;99.90
32877;DHT22;19226;51.600;8.034;2023-03-14T15:39:25;9.80;99.90
32877;DHT22;19226;51.600;8.034;2023-03-14T15:42:10;9.80;99.90
32877;DHT22;19226;51.600;8.034;2023-03-14T15:44:55;9.70;99.90
32877;DHT22;19226;51.600;8.034;2023-03-14T15:47:39;9.60;99.90
32877;DHT22;19226;51.600;8.034;2023-03-14T15:50:24;9.40;99.90
32877;DHT22;19226;51.600;8.034;2023-03-14T15:53:10;9.30;99.90
32877;DHT22;19226;51.600;8.034;2023-03-14T15:55:54;9.10;99.90
32877;DHT22;19226;51.600;8.034;2023-03-14T15:58:39;9.10;99.90
32877;DHT22;19226;51.600;8.034;2023-03-14T16:01:24;9.20;99.90
32877;DHT22;19226;51.600;8.034;2023-03-14T16:04:09;9.20;99.90
32877;DHT22;19226;51.600;8.034;2023-03-14T16:06:53;9.10;99.90
32877;DHT22;19226;51.600;8.034;2023-03-14T16:09:38;9.00;99.90
32877;DHT22;19226;51.600;8.034;2023-03-14T16:12:22;8.90;99.90
32877;DHT22;19226;51.600;8.034;2023-03-14T16:15:08;9.00;99.90
32877;DHT22;19226;51.600;8.034;2023-03-14T16:17:53;9.00;99.90
32877;DHT22;19226;51.600;8.034;2023-03-14T16:20:38;8.90;99.90
32877;DHT22;19226;51.600;8.034;2023-03-14T16:23:23;8.80;99.90
32877;DHT22;19226;51.600;8.034;2023-03-14T16:26:11;8.60;99.90
32877;DHT22;19226;51.600;8.034;2023-03-14T16:28:56;8.50;99.90
32877;DHT22;19226;51.600;8.034;2023-03-14T16:31:41;8.30;99.90
32877;DHT22;19226;51.600;8.034;2023-03-14T16:34:26;8.30;99.90
32877;DHT22;19226;51.600;8.034;2023-03-14T16:37:11;8.20;99.90
32877;DHT22;19226;51.600;8.034;2023-03-14T16:39:56;8.20;99.90
32877;DHT22;19226;51.600;8.034;2023-03-14T16:42:41;8.20;99.90
32877;DHT22;19226;51.600;8.034;2023-03-14T16:45:25;8.10;99.90
32877;DHT22;19226;51.600;8.034;2023-03-14T16:48:10;8.00;99.90
32877;DHT22;19226;51.600;8.034;2023-03-14T16:50:55;8.00;99.90
32877;DHT22;19226;51.600;8.034;2023-03-14T16:53:39;8.00;99.90
32877;DHT22;19226;51.600;8.034;2023-03-14T16:56:25;7.90;99.90
32877;DHT22;19226;51.600;8.034;2023-03-14T16:59:09;7.90;99.90
32877;DHT22;19226;51.600;8.034;2023-03-14T17:01:55;7.80;99.90
32877;DHT22;19226;51.600;8.034;2023-03-14T17:04:39;7.70;99.90
32877;DHT22;19226;51.600;8.034;2023-03-14T17:07:28;7.60;99.90
32877;DHT22;19226;51.600;8.034;2023-03-14T17:10:12;7.50;99.90
32877;DHT22;19226;51.600;8.034;2023-03-14T17:12:57;7.40;99.90
32877;DHT22;19226;51.600;8.034;2023-03-14T17:15:45;7.40;99.90
32877;DHT22;19226;51.600;8.034;2023-03-14T17:18:30;7.40;99.90
32877;DHT22;19226;51.600;8.034;2023-03-14T17:21:18;7.30;99.90
32877;DHT22;19226;51.600;8.034;2023-03-14T17:24:03;7.30;99.90
32877;DHT22;19226;51.600;8.034;2023-03-14T17:26:47;7.20;99.90
32877;DHT22;19226;51.600;8.034;2023-03-14T17:29:32;7.30;99.90
32877;DHT22;19226;51.600;8.034;2023-03-14T17:32:17;7.20;99.90
32877;DHT22;19226;51.600;8.034;2023-03-14T17:35:02;7.20;99.90
32877;DHT22;19226;51.600;8.034;2023-03-14T17:37:46;7.20;99.90
32877;DHT22;19226;51.600;8.034;2023-03-14T17:40:31;7.10;99.90
32877;DHT22;19226;51.600;8.034;2023-03-14T17:43:16;7.00;99.90
32877;DHT22;19226;51.600;8.034;2023-03-14T17:46:03;6.90;99.90
32877;DHT22;19226;51.600;8.034;2023-03-14T17:48:54;6.80;99.90
32877;DHT22;19226;51.600;8.034;2023-03-14T17:51:38;6.70;99.90
32877;DHT22;19226;51.600;8.034;2023-03-14T17:54:23;6.60;99.90
32877;DHT22;19226;51.600;8.034;2023-03-14T17:57:08;6.60;99.90
32877;DHT22;19226;51.600;8.034;2023-03-14T17:59:52;6.50;99.90
32877;DHT22;19226;51.600;8.034;2023-03-14T18:02:37;6.40;99.90
32877;DHT22;19226;51.600;8.034;2023-03-14T18:05:24;6.30;99.90
32877;DHT22;19226;51.600;8.034;2023-03-14T18:08:12;6.30;99.90
32877;DHT22;19226;51.600;8.034;2023-03-14T18:10:56;6.20;99.90
32877;DHT22;19226;51.600;8.034;2023-03-14T18:13:41;6.20;99.90
32877;DHT22;19226;51.600;8.034;2023-03-14T18:16:26;6.20;99.90
32877;DHT22;19226;51.600;8.034;2023-03-14T18:19:11;6.10;99.90
32877;DHT22;19226;51.600;8.034;2023-03-14T18:21:56;6.00;99.90
32877;DHT22;19226;51.600;8.034;2023-03-14T18:24:41;6.00;99.90